sensor_id;sensor_type;location;lat;lon;timestamp;pressure;altitude;pressure_sealevel;temperature
71205;BMP180;58935;54.498;18.544;2024-02-15T00:00:52;100755.80;;;5.48
71205;BMP180;58935;54.498;18.544;2024-02-15T00:03:18;100756.40;;;5.46
71205;BMP180;58935;54.498;18.544;2024-02-15T00:05:45;100756.00;;;5.46
71205;BMP180;58935;54.498;18.544;2024-02-15T00:08:12;100752.40;;;5.42
71205;BMP180;58935;54.498;18.544;2024-02-15T00:10:37;100751.60;;;5.44
71205;BMP180;58935;54.498;18.544;2024-02-15T00:13:03;100749.00;;;5.48
71205;BMP180;58935;54.498;18.544;2024-02-15T00:15:32;100748.20;;;5.50
71205;BMP180;58935;54.498;18.544;2024-02-15T00:18:00;100751.00;;;5.50
71205;BMP180;58935;54.498;18.544;2024-02-15T00:20:25;100750.20;;;5.50
71205;BMP180;58935;54.498;18.544;2024-02-15T00:22:50;100748.80;;;5.50
71205;BMP180;58935;54.498;18.544;2024-02-15T00:25:17;100745.00;;;5.50
71205;BMP180;58935;54.498;18.544;2024-02-15T00:27:45;100745.40;;;5.50
71205;BMP180;58935;54.498;18.544;2024-02-15T00:30:13;100739.60;;;5.50
71205;BMP180;58935;54.498;18.544;2024-02-15T00:32:39;100738.00;;;5.50
71205;BMP180;58935;54.498;18.544;2024-02-15T00:35:05;100736.80;;;5.50
71205;BMP180;58935;54.498;18.544;2024-02-15T00:37:33;100738.20;;;5.50
71205;BMP180;58935;54.498;18.544;2024-02-15T00:39:59;100739.60;;;5.50
71205;BMP180;58935;54.498;18.544;2024-02-15T00:42:24;100740.20;;;5.50
71205;BMP180;58935;54.498;18.544;2024-02-15T00:44:51;100740.80;;;5.50
71205;BMP180;58935;54.498;18.544;2024-02-15T00:47:16;100739.40;;;5.50
71205;BMP180;58935;54.498;18.544;2024-02-15T00:49:47;100734.40;;;5.50
71205;BMP180;58935;54.498;18.544;2024-02-15T00:52:14;100735.80;;;5.50
71205;BMP180;58935;54.498;18.544;2024-02-15T00:54:42;100733.20;;;5.50
71205;BMP180;58935;54.498;18.544;2024-02-15T00:57:09;100738.80;;;5.50
71205;BMP180;58935;54.498;18.544;2024-02-15T00:59:34;100740.60;;;5.50
71205;BMP180;58935;54.498;18.544;2024-02-15T01:02:01;100734.60;;;5.50
71205;BMP180;58935;54.498;18.544;2024-02-15T01:04:30;100733.20;;;5.52
71205;BMP180;58935;54.498;18.544;2024-02-15T01:06:55;100729.40;;;5.56
71205;BMP180;58935;54.498;18.544;2024-02-15T01:09:22;100733.20;;;5.52
71205;BMP180;58935;54.498;18.544;2024-02-15T01:11:48;100727.40;;;5.60
71205;BMP180;58935;54.498;18.544;2024-02-15T01:14:18;100724.80;;;5.56
71205;BMP180;58935;54.498;18.544;2024-02-15T01:16:43;100720.40;;;5.56
71205;BMP180;58935;54.498;18.544;2024-02-15T01:19:10;100720.60;;;5.56
71205;BMP180;58935;54.498;18.544;2024-02-15T01:21:38;100717.40;;;5.58
71205;BMP180;58935;54.498;18.544;2024-02-15T01:24:04;100718.20;;;5.60
71205;BMP180;58935;54.498;18.544;2024-02-15T01:26:34;100717.00;;;5.60
71205;BMP180;58935;54.498;18.544;2024-02-15T01:29:04;100718.80;;;5.60
71205;BMP180;58935;54.498;18.544;2024-02-15T01:31:32;100717.20;;;5.60
71205;BMP180;58935;54.498;18.544;2024-02-15T01:33:57;100716.20;;;5.60
71205;BMP180;58935;54.498;18.544;2024-02-15T01:36:22;100713.00;;;5.64
71205;BMP180;58935;54.498;18.544;2024-02-15T01:38:48;100713.60;;;5.68
71205;BMP180;58935;54.498;18.544;2024-02-15T01:41:13;100714.80;;;5.70
71205;BMP180;58935;54.498;18.544;2024-02-15T01:43:43;100712.20;;;5.70
71205;BMP180;58935;54.498;18.544;2024-02-15T01:46:10;100708.00;;;5.70
71205;BMP180;58935;54.498;18.544;2024-02-15T01:48:37;100705.00;;;5.70
71205;BMP180;58935;54.498;18.544;2024-02-15T01:51:12;100705.20;;;5.74
71205;BMP180;58935;54.498;18.544;2024-02-15T01:53:41;100705.40;;;5.78
71205;BMP180;58935;54.498;18.544;2024-02-15T01:56:17;100704.20;;;5.80
71205;BMP180;58935;54.498;18.544;2024-02-15T01:58:45;100703.80;;;5.80
71205;BMP180;58935;54.498;18.544;2024-02-15T02:01:14;100699.60;;;5.80
71205;BMP180;58935;54.498;18.544;2024-02-15T02:03:43;100696.80;;;5.80
71205;BMP180;58935;54.498;18.544;2024-02-15T02:06:11;100695.80;;;5.80
71205;BMP180;58935;54.498;18.544;2024-02-15T02:08:36;100697.60;;;5.80
71205;BMP180;58935;54.498;18.544;2024-02-15T02:11:02;100696.40;;;5.80
71205;BMP180;58935;54.498;18.544;2024-02-15T02:13:29;100700.60;;;5.80
71205;BMP180;58935;54.498;18.544;2024-02-15T02:15:54;100693.00;;;5.80
71205;BMP180;58935;54.498;18.544;2024-02-15T02:18:21;100693.20;;;5.80
71205;BMP180;58935;54.498;18.544;2024-02-15T02:20:46;100692.80;;;5.80
71205;BMP180;58935;54.498;18.544;2024-02-15T02:23:16;100692.20;;;5.80
71205;BMP180;58935;54.498;18.544;2024-02-15T02:25:44;100687.20;;;5.80
71205;BMP180;58935;54.498;18.544;2024-02-15T02:28:12;100685.80;;;5.80
71205;BMP180;58935;54.498;18.544;2024-02-15T02:30:40;100682.80;;;5.80
71205;BMP180;58935;54.498;18.544;2024-02-15T02:33:11;100675.00;;;5.80
71205;BMP180;58935;54.498;18.544;2024-02-15T02:35:44;100672.60;;;5.80
71205;BMP180;58935;54.498;18.544;2024-02-15T02:38:09;100676.40;;;5.80
71205;BMP180;58935;54.498;18.544;2024-02-15T02:40:35;100678.20;;;5.80
71205;BMP180;58935;54.498;18.544;2024-02-15T02:43:01;100675.60;;;5.80
71205;BMP180;58935;54.498;18.544;2024-02-15T02:45:32;100672.80;;;5.80
71205;BMP180;58935;54.498;18.544;2024-02-15T02:48:00;100672.80;;;5.80
71205;BMP180;58935;54.498;18.544;2024-02-15T02:50:26;100676.00;;;5.80
71205;BMP180;58935;54.498;18.544;2024-02-15T02:52:52;100674.60;;;5.80
71205;BMP180;58935;54.498;18.544;2024-02-15T02:55:18;100673.20;;;5.70
71205;BMP180;58935;54.498;18.544;2024-02-15T02:57:43;100670.60;;;5.72
71205;BMP180;58935;54.498;18.544;2024-02-15T03:00:12;100671.60;;;5.70
71205;BMP180;58935;54.498;18.544;2024-02-15T03:02:39;100667.80;;;5.70
71205;BMP180;58935;54.498;18.544;2024-02-15T03:05:06;100666.00;;;5.70
71205;BMP180;58935;54.498;18.544;2024-02-15T03:07:36;100669.40;;;5.70
71205;BMP180;58935;54.498;18.544;2024-02-15T03:10:04;100670.60;;;5.70
71205;BMP180;58935;54.498;18.544;2024-02-15T03:12:30;100673.60;;;5.70
71205;BMP180;58935;54.498;18.544;2024-02-15T03:14:56;100676.80;;;5.70
71205;BMP180;58935;54.498;18.544;2024-02-15T03:17:23;100674.00;;;5.70
71205;BMP180;58935;54.498;18.544;2024-02-15T03:19:49;100676.20;;;5.70
71205;BMP180;58935;54.498;18.544;2024-02-15T03:22:17;100677.00;;;5.70
71205;BMP180;58935;54.498;18.544;2024-02-15T03:24:42;100679.80;;;5.70
71205;BMP180;58935;54.498;18.544;2024-02-15T03:27:08;100681.80;;;5.70
71205;BMP180;58935;54.498;18.544;2024-02-15T03:29:38;100681.00;;;5.70
71205;BMP180;58935;54.498;18.544;2024-02-15T03:32:06;100682.00;;;5.70
71205;BMP180;58935;54.498;18.544;2024-02-15T03:34:34;100680.00;;;5.80
71205;BMP180;58935;54.498;18.544;2024-02-15T03:37:01;100684.80;;;5.80
71205;BMP180;58935;54.498;18.544;2024-02-15T03:39:30;100689.60;;;5.80
71205;BMP180;58935;54.498;18.544;2024-02-15T03:41:56;100684.80;;;5.80
71205;BMP180;58935;54.498;18.544;2024-02-15T03:44:23;100686.60;;;5.80
71205;BMP180;58935;54.498;18.544;2024-02-15T03:46:51;100689.20;;;5.80
71205;BMP180;58935;54.498;18.544;2024-02-15T03:49:18;100684.60;;;5.80
71205;BMP180;58935;54.498;18.544;2024-02-15T03:51:44;100687.80;;;5.80
71205;BMP180;58935;54.498;18.544;2024-02-15T03:54:11;100693.00;;;5.80
71205;BMP180;58935;54.498;18.544;2024-02-15T03:56:37;100686.20;;;5.80
71205;BMP180;58935;54.498;18.544;2024-02-15T03:59:03;100686.80;;;5.80
71205;BMP180;58935;54.498;18.544;2024-02-15T04:01:30;100680.80;;;5.82
71205;BMP180;58935;54.498;18.544;2024-02-15T04:03:59;100676.80;;;5.80
71205;BMP180;58935;54.498;18.544;2024-02-15T04:06:25;100680.00;;;5.90
71205;BMP180;58935;54.498;18.544;2024-02-15T04:08:52;100682.20;;;5.90
71205;BMP180;58935;54.498;18.544;2024-02-15T04:11:18;100678.40;;;5.90
71205;BMP180;58935;54.498;18.544;2024-02-15T04:13:45;100683.40;;;5.90
71205;BMP180;58935;54.498;18.544;2024-02-15T04:16:12;100681.80;;;5.90
71205;BMP180;58935;54.498;18.544;2024-02-15T04:18:39;100676.80;;;5.98
71205;BMP180;58935;54.498;18.544;2024-02-15T04:21:04;100678.00;;;5.98
71205;BMP180;58935;54.498;18.544;2024-02-15T04:23:32;100674.80;;;6.00
71205;BMP180;58935;54.498;18.544;2024-02-15T04:25:57;100673.20;;;6.00
71205;BMP180;58935;54.498;18.544;2024-02-15T04:28:25;100673.20;;;6.00
71205;BMP180;58935;54.498;18.544;2024-02-15T04:30:50;100678.60;;;6.02
71205;BMP180;58935;54.498;18.544;2024-02-15T04:33:16;100677.60;;;6.10
71205;BMP180;58935;54.498;18.544;2024-02-15T04:35:42;100681.80;;;6.10
71205;BMP180;58935;54.498;18.544;2024-02-15T04:38:09;100681.00;;;6.10
71205;BMP180;58935;54.498;18.544;2024-02-15T04:40:34;100677.20;;;6.10
71205;BMP180;58935;54.498;18.544;2024-02-15T04:43:02;100674.40;;;6.10
71205;BMP180;58935;54.498;18.544;2024-02-15T04:45:32;100675.60;;;6.10
71205;BMP180;58935;54.498;18.544;2024-02-15T04:47:57;100670.20;;;6.10
71205;BMP180;58935;54.498;18.544;2024-02-15T04:50:29;100670.40;;;6.12
71205;BMP180;58935;54.498;18.544;2024-02-15T04:52:57;100668.80;;;6.12
71205;BMP180;58935;54.498;18.544;2024-02-15T04:55:22;100668.00;;;6.18
71205;BMP180;58935;54.498;18.544;2024-02-15T04:57:49;100666.20;;;6.20
71205;BMP180;58935;54.498;18.544;2024-02-15T05:00:21;100672.60;;;6.20
71205;BMP180;58935;54.498;18.544;2024-02-15T05:02:47;100673.60;;;6.20
71205;BMP180;58935;54.498;18.544;2024-02-15T05:05:14;100668.40;;;6.20
71205;BMP180;58935;54.498;18.544;2024-02-15T05:07:42;100669.60;;;6.20
71205;BMP180;58935;54.498;18.544;2024-02-15T05:10:08;100670.20;;;6.20
71205;BMP180;58935;54.498;18.544;2024-02-15T05:12:36;100674.20;;;6.20
71205;BMP180;58935;54.498;18.544;2024-02-15T05:15:02;100670.00;;;6.20
71205;BMP180;58935;54.498;18.544;2024-02-15T05:17:38;100674.40;;;6.30
71205;BMP180;58935;54.498;18.544;2024-02-15T05:20:08;100676.60;;;6.30
71205;BMP180;58935;54.498;18.544;2024-02-15T05:22:37;100674.00;;;6.30
71205;BMP180;58935;54.498;18.544;2024-02-15T05:25:06;100677.20;;;6.30
71205;BMP180;58935;54.498;18.544;2024-02-15T05:27:33;100677.60;;;6.30
71205;BMP180;58935;54.498;18.544;2024-02-15T05:29:58;100680.00;;;6.30
71205;BMP180;58935;54.498;18.544;2024-02-15T05:32:24;100682.80;;;6.30
71205;BMP180;58935;54.498;18.544;2024-02-15T05:34:54;100682.60;;;6.30
71205;BMP180;58935;54.498;18.544;2024-02-15T05:37:20;100681.40;;;6.30
71205;BMP180;58935;54.498;18.544;2024-02-15T05:39:48;100682.60;;;6.30
71205;BMP180;58935;54.498;18.544;2024-02-15T05:42:18;100688.60;;;6.30
71205;BMP180;58935;54.498;18.544;2024-02-15T05:44:46;100686.40;;;6.30
71205;BMP180;58935;54.498;18.544;2024-02-15T05:47:12;100690.20;;;6.30
71205;BMP180;58935;54.498;18.544;2024-02-15T05:49:37;100688.20;;;6.30
71205;BMP180;58935;54.498;18.544;2024-02-15T05:52:03;100691.20;;;6.32
71205;BMP180;58935;54.498;18.544;2024-02-15T05:54:29;100691.00;;;6.30
71205;BMP180;58935;54.498;18.544;2024-02-15T05:56:56;100698.00;;;6.30
71205;BMP180;58935;54.498;18.544;2024-02-15T05:59:23;100694.40;;;6.30
71205;BMP180;58935;54.498;18.544;2024-02-15T06:01:49;100695.40;;;6.34
71205;BMP180;58935;54.498;18.544;2024-02-15T06:04:15;100694.60;;;6.40
71205;BMP180;58935;54.498;18.544;2024-02-15T06:06:42;100695.60;;;6.40
71205;BMP180;58935;54.498;18.544;2024-02-15T06:09:08;100695.60;;;6.40
71205;BMP180;58935;54.498;18.544;2024-02-15T06:11:33;100697.40;;;6.40
71205;BMP180;58935;54.498;18.544;2024-02-15T06:14:02;100700.00;;;6.40
71205;BMP180;58935;54.498;18.544;2024-02-15T06:16:30;100702.60;;;6.40
71205;BMP180;58935;54.498;18.544;2024-02-15T06:18:55;100700.00;;;6.40
71205;BMP180;58935;54.498;18.544;2024-02-15T06:21:23;100705.20;;;6.40
71205;BMP180;58935;54.498;18.544;2024-02-15T06:23:49;100708.20;;;6.40
71205;BMP180;58935;54.498;18.544;2024-02-15T06:26:16;100704.00;;;6.40
71205;BMP180;58935;54.498;18.544;2024-02-15T06:28:42;100707.20;;;6.48
71205;BMP180;58935;54.498;18.544;2024-02-15T06:31:14;100711.60;;;6.48
71205;BMP180;58935;54.498;18.544;2024-02-15T06:33:42;100712.60;;;6.50
71205;BMP180;58935;54.498;18.544;2024-02-15T06:36:10;100712.60;;;6.50
71205;BMP180;58935;54.498;18.544;2024-02-15T06:38:39;100710.80;;;6.50
71205;BMP180;58935;54.498;18.544;2024-02-15T06:41:07;100708.20;;;6.50
71205;BMP180;58935;54.498;18.544;2024-02-15T06:43:32;100713.00;;;6.52
71205;BMP180;58935;54.498;18.544;2024-02-15T06:46:00;100712.40;;;6.60
71205;BMP180;58935;54.498;18.544;2024-02-15T06:48:27;100713.20;;;6.60
71205;BMP180;58935;54.498;18.544;2024-02-15T06:50:52;100704.00;;;6.60
71205;BMP180;58935;54.498;18.544;2024-02-15T06:53:20;100708.80;;;6.60
71205;BMP180;58935;54.498;18.544;2024-02-15T06:55:46;100706.60;;;6.64
71205;BMP180;58935;54.498;18.544;2024-02-15T06:58:15;100701.00;;;6.70
71205;BMP180;58935;54.498;18.544;2024-02-15T07:00:43;100709.80;;;6.70
71205;BMP180;58935;54.498;18.544;2024-02-15T07:03:09;100710.00;;;6.70
71205;BMP180;58935;54.498;18.544;2024-02-15T07:05:36;100711.00;;;6.78
71205;BMP180;58935;54.498;18.544;2024-02-15T07:08:08;100713.80;;;6.80
71205;BMP180;58935;54.498;18.544;2024-02-15T07:10:39;100713.60;;;6.82
71205;BMP180;58935;54.498;18.544;2024-02-15T07:13:05;100711.80;;;6.90
71205;BMP180;58935;54.498;18.544;2024-02-15T07:15:33;100709.60;;;6.90
71205;BMP180;58935;54.498;18.544;2024-02-15T07:18:05;100716.20;;;7.00
71205;BMP180;58935;54.498;18.544;2024-02-15T07:20:32;100721.80;;;7.00
71205;BMP180;58935;54.498;18.544;2024-02-15T07:23:02;100716.20;;;7.10
71205;BMP180;58935;54.498;18.544;2024-02-15T07:25:29;100717.60;;;7.10
71205;BMP180;58935;54.498;18.544;2024-02-15T07:27:54;100721.20;;;7.10
71205;BMP180;58935;54.498;18.544;2024-02-15T07:30:20;100723.60;;;7.20
71205;BMP180;58935;54.498;18.544;2024-02-15T07:32:45;100719.80;;;7.20
71205;BMP180;58935;54.498;18.544;2024-02-15T07:35:11;100721.40;;;7.30
71205;BMP180;58935;54.498;18.544;2024-02-15T07:37:39;100727.80;;;7.30
71205;BMP180;58935;54.498;18.544;2024-02-15T07:40:15;100724.80;;;7.40
71205;BMP180;58935;54.498;18.544;2024-02-15T07:42:45;100719.80;;;7.40
71205;BMP180;58935;54.498;18.544;2024-02-15T07:45:11;100720.80;;;7.50
71205;BMP180;58935;54.498;18.544;2024-02-15T07:47:37;100721.40;;;7.50
71205;BMP180;58935;54.498;18.544;2024-02-15T07:50:04;100725.20;;;7.58
71205;BMP180;58935;54.498;18.544;2024-02-15T07:52:30;100725.20;;;7.60
71205;BMP180;58935;54.498;18.544;2024-02-15T07:54:56;100725.60;;;7.60
71205;BMP180;58935;54.498;18.544;2024-02-15T07:57:21;100724.60;;;7.62
71205;BMP180;58935;54.498;18.544;2024-02-15T07:59:50;100726.60;;;7.70
71205;BMP180;58935;54.498;18.544;2024-02-15T08:02:15;100728.40;;;7.70
71205;BMP180;58935;54.498;18.544;2024-02-15T08:04:47;100723.40;;;7.72
71205;BMP180;58935;54.498;18.544;2024-02-15T08:07:15;100723.60;;;7.80
71205;BMP180;58935;54.498;18.544;2024-02-15T08:09:41;100725.20;;;7.80
71205;BMP180;58935;54.498;18.544;2024-02-15T08:12:09;100724.60;;;7.90
71205;BMP180;58935;54.498;18.544;2024-02-15T08:14:35;100724.60;;;7.90
71205;BMP180;58935;54.498;18.544;2024-02-15T08:17:00;100724.80;;;7.98
71205;BMP180;58935;54.498;18.544;2024-02-15T08:19:27;100721.80;;;8.00
71205;BMP180;58935;54.498;18.544;2024-02-15T08:21:54;100723.00;;;8.10
71205;BMP180;58935;54.498;18.544;2024-02-15T08:24:19;100721.60;;;8.10
71205;BMP180;58935;54.498;18.544;2024-02-15T08:26:44;100719.80;;;8.20
71205;BMP180;58935;54.498;18.544;2024-02-15T08:29:11;100715.00;;;8.20
71205;BMP180;58935;54.498;18.544;2024-02-15T08:31:37;100716.80;;;8.30
71205;BMP180;58935;54.498;18.544;2024-02-15T08:34:03;100725.60;;;8.40
71205;BMP180;58935;54.498;18.544;2024-02-15T08:36:31;100732.20;;;8.40
71205;BMP180;58935;54.498;18.544;2024-02-15T08:38:57;100727.40;;;8.50
71205;BMP180;58935;54.498;18.544;2024-02-15T08:41:22;100733.00;;;8.50
71205;BMP180;58935;54.498;18.544;2024-02-15T08:43:52;100727.80;;;8.60
71205;BMP180;58935;54.498;18.544;2024-02-15T08:46:18;100733.40;;;8.60
71205;BMP180;58935;54.498;18.544;2024-02-15T08:48:45;100737.20;;;8.60
71205;BMP180;58935;54.498;18.544;2024-02-15T08:51:12;100736.40;;;8.66
71205;BMP180;58935;54.498;18.544;2024-02-15T08:53:38;100735.60;;;8.70
71205;BMP180;58935;54.498;18.544;2024-02-15T08:56:04;100738.00;;;8.70
71205;BMP180;58935;54.498;18.544;2024-02-15T08:58:30;100741.80;;;8.78
71205;BMP180;58935;54.498;18.544;2024-02-15T09:00:57;100733.00;;;8.80
71205;BMP180;58935;54.498;18.544;2024-02-15T09:03:23;100732.80;;;8.86
71205;BMP180;58935;54.498;18.544;2024-02-15T09:05:48;100729.00;;;8.90
71205;BMP180;58935;54.498;18.544;2024-02-15T09:08:14;100735.40;;;8.94
71205;BMP180;58935;54.498;18.544;2024-02-15T09:10:41;100734.00;;;9.00
71205;BMP180;58935;54.498;18.544;2024-02-15T09:13:08;100733.20;;;9.04
71205;BMP180;58935;54.498;18.544;2024-02-15T09:15:34;100738.40;;;9.10
71205;BMP180;58935;54.498;18.544;2024-02-15T09:18:00;100738.80;;;9.20
71205;BMP180;58935;54.498;18.544;2024-02-15T09:20:28;100743.80;;;9.20
71205;BMP180;58935;54.498;18.544;2024-02-15T09:22:55;100744.80;;;9.28
71205;BMP180;58935;54.498;18.544;2024-02-15T09:25:22;100747.80;;;9.30
71205;BMP180;58935;54.498;18.544;2024-02-15T09:27:50;100744.40;;;9.30
71205;BMP180;58935;54.498;18.544;2024-02-15T09:30:17;100747.80;;;9.34
71205;BMP180;58935;54.498;18.544;2024-02-15T09:32:44;100747.00;;;9.40
71205;BMP180;58935;54.498;18.544;2024-02-15T09:35:13;100744.60;;;9.40
71205;BMP180;58935;54.498;18.544;2024-02-15T09:37:46;100751.80;;;9.50
71205;BMP180;58935;54.498;18.544;2024-02-15T09:40:14;100752.20;;;9.50
71205;BMP180;58935;54.498;18.544;2024-02-15T09:42:42;100749.80;;;9.52
71205;BMP180;58935;54.498;18.544;2024-02-15T09:45:11;100750.20;;;9.60
71205;BMP180;58935;54.498;18.544;2024-02-15T09:47:41;100751.80;;;9.60
71205;BMP180;58935;54.498;18.544;2024-02-15T09:50:09;100761.40;;;9.60
71205;BMP180;58935;54.498;18.544;2024-02-15T09:52:49;100761.00;;;9.60
71205;BMP180;58935;54.498;18.544;2024-02-15T09:55:15;100764.60;;;9.62
71205;BMP180;58935;54.498;18.544;2024-02-15T09:57:44;100765.40;;;9.70
71205;BMP180;58935;54.498;18.544;2024-02-15T10:00:11;100760.40;;;9.70
71205;BMP180;58935;54.498;18.544;2024-02-15T10:02:46;100762.60;;;9.70
71205;BMP180;58935;54.498;18.544;2024-02-15T10:05:13;100760.80;;;9.76
71205;BMP180;58935;54.498;18.544;2024-02-15T10:07:42;100764.00;;;9.80
71205;BMP180;58935;54.498;18.544;2024-02-15T10:10:16;100754.80;;;9.86
71205;BMP180;58935;54.498;18.544;2024-02-15T10:12:42;100756.60;;;9.90
71205;BMP180;58935;54.498;18.544;2024-02-15T10:15:30;100755.00;;;9.90
71205;BMP180;58935;54.498;18.544;2024-02-15T10:17:58;100754.00;;;9.96
71205;BMP180;58935;54.498;18.544;2024-02-15T10:20:26;100755.60;;;10.00
71205;BMP180;58935;54.498;18.544;2024-02-15T10:23:14;100751.80;;;10.00
71205;BMP180;58935;54.498;18.544;2024-02-15T10:25:43;100757.20;;;10.00
71205;BMP180;58935;54.498;18.544;2024-02-15T10:28:14;100757.40;;;10.00
71205;BMP180;58935;54.498;18.544;2024-02-15T10:30:44;100759.40;;;10.00
71205;BMP180;58935;54.498;18.544;2024-02-15T10:33:19;100755.00;;;9.98
71205;BMP180;58935;54.498;18.544;2024-02-15T10:35:46;100755.80;;;10.00
71205;BMP180;58935;54.498;18.544;2024-02-15T10:38:12;100754.40;;;10.00
71205;BMP180;58935;54.498;18.544;2024-02-15T10:40:39;100755.00;;;10.00
71205;BMP180;58935;54.498;18.544;2024-02-15T10:43:09;100751.60;;;10.04
71205;BMP180;58935;54.498;18.544;2024-02-15T10:45:39;100751.00;;;10.10
71205;BMP180;58935;54.498;18.544;2024-02-15T10:48:10;100749.80;;;10.10
71205;BMP180;58935;54.498;18.544;2024-02-15T10:50:42;100748.20;;;10.12
71205;BMP180;58935;54.498;18.544;2024-02-15T10:56:08;100748.00;;;10.20
71205;BMP180;58935;54.498;18.544;2024-02-15T10:58:50;100747.40;;;10.20
71205;BMP180;58935;54.498;18.544;2024-02-15T11:01:20;100740.40;;;10.30
71205;BMP180;58935;54.498;18.544;2024-02-15T11:03:53;100738.00;;;10.30
71205;BMP180;58935;54.498;18.544;2024-02-15T11:06:27;100742.40;;;10.30
71205;BMP180;58935;54.498;18.544;2024-02-15T11:08:57;100735.80;;;10.40
71205;BMP180;58935;54.498;18.544;2024-02-15T11:11:24;100739.40;;;10.44
71205;BMP180;58935;54.498;18.544;2024-02-15T11:16:42;100726.40;;;10.50
71205;BMP180;58935;54.498;18.544;2024-02-15T11:19:36;100727.40;;;10.50
71205;BMP180;58935;54.498;18.544;2024-02-15T11:21:56;100729.80;;;10.60
71205;BMP180;58935;54.498;18.544;2024-02-15T11:24:28;100728.20;;;10.60
71205;BMP180;58935;54.498;18.544;2024-02-15T11:27:00;100728.40;;;10.60
71205;BMP180;58935;54.498;18.544;2024-02-15T11:32:05;100716.00;;;10.70
71205;BMP180;58935;54.498;18.544;2024-02-15T11:34:44;100714.60;;;10.80
71205;BMP180;58935;54.498;18.544;2024-02-15T11:40:05;100716.00;;;10.80
71205;BMP180;58935;54.498;18.544;2024-02-15T11:42:35;100718.80;;;10.80
71205;BMP180;58935;54.498;18.544;2024-02-15T11:45:08;100716.20;;;10.76
71205;BMP180;58935;54.498;18.544;2024-02-15T11:47:38;100718.80;;;10.70
71205;BMP180;58935;54.498;18.544;2024-02-15T11:50:11;100717.60;;;10.70
71205;BMP180;58935;54.498;18.544;2024-02-15T11:52:41;100714.40;;;10.80
71205;BMP180;58935;54.498;18.544;2024-02-15T11:55:12;100719.00;;;10.80
71205;BMP180;58935;54.498;18.544;2024-02-15T11:57:40;100720.80;;;10.80
71205;BMP180;58935;54.498;18.544;2024-02-15T12:00:09;100720.20;;;10.90
71205;BMP180;58935;54.498;18.544;2024-02-15T12:02:40;100717.80;;;10.90
71205;BMP180;58935;54.498;18.544;2024-02-15T12:05:08;100718.00;;;10.90
71205;BMP180;58935;54.498;18.544;2024-02-15T12:07:37;100724.00;;;10.88
71205;BMP180;58935;54.498;18.544;2024-02-15T12:10:06;100722.40;;;10.82
71205;BMP180;58935;54.498;18.544;2024-02-15T12:12:34;100716.40;;;10.80
71205;BMP180;58935;54.498;18.544;2024-02-15T12:15:06;100715.60;;;10.80
71205;BMP180;58935;54.498;18.544;2024-02-15T12:17:37;100713.60;;;10.80
71205;BMP180;58935;54.498;18.544;2024-02-15T12:20:06;100719.00;;;10.86
71205;BMP180;58935;54.498;18.544;2024-02-15T12:22:45;100720.40;;;10.90
71205;BMP180;58935;54.498;18.544;2024-02-15T12:25:15;100723.60;;;10.90
71205;BMP180;58935;54.498;18.544;2024-02-15T12:27:43;100720.00;;;11.00
71205;BMP180;58935;54.498;18.544;2024-02-15T12:30:16;100726.60;;;10.90
71205;BMP180;58935;54.498;18.544;2024-02-15T12:32:48;100725.00;;;10.92
71205;BMP180;58935;54.498;18.544;2024-02-15T12:35:16;100724.00;;;10.90
71205;BMP180;58935;54.498;18.544;2024-02-15T12:37:43;100723.60;;;10.90
71205;BMP180;58935;54.498;18.544;2024-02-15T12:42:51;100716.60;;;10.90
71205;BMP180;58935;54.498;18.544;2024-02-15T12:45:28;100717.00;;;10.90
71205;BMP180;58935;54.498;18.544;2024-02-15T12:48:02;100717.00;;;10.96
71205;BMP180;58935;54.498;18.544;2024-02-15T12:50:37;100716.00;;;11.00
71205;BMP180;58935;54.498;18.544;2024-02-15T12:55:43;100715.00;;;11.10
71205;BMP180;58935;54.498;18.544;2024-02-15T13:03:33;100717.40;;;11.20
71205;BMP180;58935;54.498;18.544;2024-02-15T13:05:59;100715.40;;;11.20
71205;BMP180;58935;54.498;18.544;2024-02-15T13:08:31;100714.60;;;11.20
71205;BMP180;58935;54.498;18.544;2024-02-15T13:11:07;100713.00;;;11.20
71205;BMP180;58935;54.498;18.544;2024-02-15T13:16:14;100711.40;;;11.30
71205;BMP180;58935;54.498;18.544;2024-02-15T13:21:17;100715.80;;;11.30
71205;BMP180;58935;54.498;18.544;2024-02-15T13:23:47;100712.40;;;11.40
71205;BMP180;58935;54.498;18.544;2024-02-15T13:26:15;100713.00;;;11.40
71205;BMP180;58935;54.498;18.544;2024-02-15T13:28:43;100712.40;;;11.32
71205;BMP180;58935;54.498;18.544;2024-02-15T13:31:12;100712.80;;;11.30
71205;BMP180;58935;54.498;18.544;2024-02-15T13:33:43;100714.00;;;11.30
71205;BMP180;58935;54.498;18.544;2024-02-15T13:36:08;100713.60;;;11.30
71205;BMP180;58935;54.498;18.544;2024-02-15T13:38:39;100713.00;;;11.30
71205;BMP180;58935;54.498;18.544;2024-02-15T13:41:07;100718.80;;;11.26
71205;BMP180;58935;54.498;18.544;2024-02-15T13:43:34;100710.80;;;11.20
71205;BMP180;58935;54.498;18.544;2024-02-15T13:46:02;100711.80;;;11.20
71205;BMP180;58935;54.498;18.544;2024-02-15T13:48:30;100718.60;;;11.20
71205;BMP180;58935;54.498;18.544;2024-02-15T13:50:59;100723.00;;;11.20
71205;BMP180;58935;54.498;18.544;2024-02-15T13:53:24;100725.40;;;11.20
71205;BMP180;58935;54.498;18.544;2024-02-15T13:55:51;100726.00;;;11.20
71205;BMP180;58935;54.498;18.544;2024-02-15T13:58:20;100725.60;;;11.20
71205;BMP180;58935;54.498;18.544;2024-02-15T14:00:51;100726.20;;;11.20
71205;BMP180;58935;54.498;18.544;2024-02-15T14:03:17;100726.60;;;11.20
71205;BMP180;58935;54.498;18.544;2024-02-15T14:05:43;100723.00;;;11.20
71205;BMP180;58935;54.498;18.544;2024-02-15T14:08:11;100722.20;;;11.10
71205;BMP180;58935;54.498;18.544;2024-02-15T14:10:37;100723.60;;;11.10
71205;BMP180;58935;54.498;18.544;2024-02-15T14:13:05;100725.40;;;11.10
71205;BMP180;58935;54.498;18.544;2024-02-15T14:15:34;100725.80;;;11.00
71205;BMP180;58935;54.498;18.544;2024-02-15T14:18:05;100724.00;;;11.00
71205;BMP180;58935;54.498;18.544;2024-02-15T14:20:33;100727.60;;;11.00
71205;BMP180;58935;54.498;18.544;2024-02-15T14:22:59;100730.40;;;11.00
71205;BMP180;58935;54.498;18.544;2024-02-15T14:25:30;100729.60;;;11.00